createdAt,value
2023-05-19T00:01:19.490Z,102331.53
2023-05-19T00:03:53.956Z,102333.53
2023-05-19T00:06:19.365Z,102336.66
2023-05-19T00:08:43.082Z,102336.91
2023-05-19T00:11:09.274Z,102340.91
2023-05-19T00:13:33.594Z,102331.34
2023-05-19T00:15:57.696Z,102324.88
2023-05-19T00:18:21.249Z,102331.91
2023-05-19T00:20:44.997Z,102328.00
2023-05-19T00:23:08.546Z,102323.38
2023-05-19T00:25:32.121Z,102322.94
2023-05-19T00:27:59.211Z,102328.75
2023-05-19T00:30:23.841Z,102324.06
2023-05-19T00:32:47.416Z,102327.44
2023-05-19T00:35:11.534Z,102326.16
2023-05-19T00:37:35.222Z,102329.69
2023-05-19T00:39:59.807Z,102320.38
2023-05-19T00:42:23.468Z,102330.78
2023-05-19T00:44:48.442Z,102330.22
2023-05-19T00:47:11.985Z,102328.50
2023-05-19T00:49:36.958Z,102328.25
2023-05-19T00:52:02.596Z,102326.38
2023-05-19T00:54:26.306Z,102331.03
2023-05-19T00:56:50.762Z,102335.69
2023-05-19T00:59:14.601Z,102332.03
2023-05-19T01:01:40.359Z,102331.31
2023-05-19T01:04:04.703Z,102335.13
2023-05-19T01:06:29.661Z,102327.47
2023-05-19T01:08:53.489Z,102324.91
2023-05-19T01:11:17.240Z,102325.88
2023-05-19T01:13:42.276Z,102322.31
2023-05-19T01:16:12.536Z,102325.16
2023-05-19T01:18:46.690Z,102325.56
2023-05-19T01:21:51.190Z,102322.09
2023-05-19T01:24:51.273Z,102322.09
2023-05-19T01:27:38.950Z,102327.69
2023-05-19T01:30:30.833Z,102321.91
2023-05-19T01:32:57.618Z,102320.88
2023-05-19T01:35:24.490Z,102326.63
2023-05-19T01:37:49.044Z,102325.53
2023-05-19T01:40:13.725Z,102328.44
2023-05-19T01:42:40.001Z,102330.50
2023-05-19T01:45:06.193Z,102325.28
2023-05-19T01:47:31.534Z,102329.78
2023-05-19T01:49:55.107Z,102327.41
2023-05-19T01:52:18.872Z,102323.69
2023-05-19T01:54:42.440Z,102330.22
2023-05-19T01:57:17.492Z,102333.53
2023-05-19T01:59:56.827Z,102328.38
2023-05-19T02:02:38.458Z,102329.09
2023-05-19T02:05:10.946Z,102332.00
2023-05-19T02:07:46.715Z,102341.06
2023-05-19T02:10:16.385Z,102334.75
2023-05-19T02:12:41.607Z,102340.47
2023-05-19T02:15:13.005Z,102329.84
2023-05-19T02:17:42.606Z,102337.19
2023-05-19T02:20:08.917Z,102334.69
2023-05-19T02:22:33.200Z,102331.59
2023-05-19T02:24:57.527Z,102332.44
2023-05-19T02:27:21.285Z,102332.44
2023-05-19T02:29:44.990Z,102321.94
2023-05-19T02:32:09.471Z,102326.38
2023-05-19T02:34:34.556Z,102328.97
2023-05-19T02:36:58.110Z,102326.44
2023-05-19T02:39:21.785Z,102325.25
2023-05-19T02:41:45.375Z,102318.75
2023-05-19T02:44:09.138Z,102323.09
2023-05-19T02:46:33.560Z,102321.13
2023-05-19T02:48:57.273Z,102321.59
2023-05-19T02:51:22.290Z,102324.81
2023-05-19T02:53:46.025Z,102324.41
2023-05-19T02:56:09.591Z,102319.53
2023-05-19T02:58:33.207Z,102318.50
2023-05-19T03:00:57.168Z,102321.13
2023-05-19T03:03:20.884Z,102318.38
2023-05-19T03:05:44.899Z,102316.94
2023-05-19T03:08:10.488Z,102317.19
2023-05-19T03:10:34.178Z,102315.19
2023-05-19T03:12:57.826Z,102314.59
2023-05-19T03:15:23.382Z,102323.88
2023-05-19T03:17:47.135Z,102316.13
2023-05-19T03:20:12.033Z,102316.97
2023-05-19T03:22:36.103Z,102310.66
2023-05-19T03:25:01.049Z,102309.09
2023-05-19T03:27:24.821Z,102316.03
2023-05-19T03:29:48.474Z,102311.28
2023-05-19T03:32:12.155Z,102314.50
2023-05-19T03:34:35.798Z,102313.78
2023-05-19T03:36:59.588Z,102323.97
2023-05-19T03:39:23.147Z,102324.06
2023-05-19T03:41:48.194Z,102317.28
2023-05-19T03:44:12.116Z,102312.13
2023-05-19T03:46:35.869Z,102311.81
2023-05-19T03:49:15.408Z,102311.91
2023-05-19T03:51:58.165Z,102307.75
2023-05-19T03:54:42.794Z,102315.72
2023-05-19T03:57:08.318Z,102307.63
2023-05-19T03:59:31.960Z,102312.75
2023-05-19T04:01:56.689Z,102314.56
2023-05-19T04:04:22.977Z,102323.53
2023-05-19T04:06:46.782Z,102316.16
2023-05-19T04:09:15.967Z,102311.59
2023-05-19T04:11:40.331Z,102314.31
2023-05-19T04:14:05.274Z,102307.13
2023-05-19T04:16:29.061Z,102317.16
2023-05-19T04:18:52.731Z,102322.22
2023-05-19T04:21:16.418Z,102316.25
2023-05-19T04:23:39.968Z,102313.72
2023-05-19T04:26:03.785Z,102320.81
2023-05-19T04:28:27.350Z,102318.06
2023-05-19T04:30:52.446Z,102318.94
2023-05-19T04:33:16.352Z,102323.03
2023-05-19T04:35:40.552Z,102326.84
2023-05-19T04:38:05.855Z,102315.78
2023-05-19T04:40:31.508Z,102329.69
2023-05-19T04:42:55.392Z,102327.59
2023-05-19T04:45:19.418Z,102327.47
2023-05-19T04:47:49.235Z,102327.38
2023-05-19T04:50:13.212Z,102323.75
2023-05-19T04:52:37.699Z,102336.22
2023-05-19T04:55:02.493Z,102327.09
2023-05-19T04:57:26.435Z,102329.44
2023-05-19T04:59:50.198Z,102334.13
2023-05-19T05:02:14.041Z,102327.47
2023-05-19T05:04:42.699Z,102328.72
2023-05-19T05:07:06.936Z,102326.44
2023-05-19T05:09:30.729Z,102325.97
2023-05-19T05:11:57.121Z,102333.47
2023-05-19T05:14:22.233Z,102322.13
2023-05-19T05:16:47.231Z,102331.81
2023-05-19T05:19:16.502Z,102331.66
2023-05-19T05:21:43.222Z,102331.91
2023-05-19T05:24:08.369Z,102335.97
2023-05-19T05:26:35.513Z,102335.25
2023-05-19T05:28:59.187Z,102333.56
2023-05-19T05:31:22.988Z,102333.56
2023-05-19T05:33:46.906Z,102327.13
2023-05-19T05:36:12.029Z,102333.09
2023-05-19T05:38:37.683Z,102331.56
2023-05-19T05:41:03.102Z,102334.56
2023-05-19T05:43:27.829Z,102333.38
2023-05-19T05:45:55.475Z,102334.84
2023-05-19T05:48:19.918Z,102330.16
2023-05-19T05:50:45.363Z,102324.41
2023-05-19T05:53:18.273Z,102328.44
2023-05-19T05:55:44.869Z,102327.41
2023-05-19T05:58:11.382Z,102324.78
2023-05-19T06:00:35.474Z,102333.16
2023-05-19T06:02:59.983Z,102314.56
2023-05-19T06:05:24.782Z,102317.81
2023-05-19T06:07:48.435Z,102320.75
2023-05-19T06:10:17.314Z,102321.13
2023-05-19T06:12:43.281Z,102326.34
2023-05-19T06:15:09.318Z,102312.66
2023-05-19T06:17:56.167Z,102325.13
2023-05-19T06:20:20.046Z,102320.91
2023-05-19T06:22:43.628Z,102319.88
2023-05-19T06:25:09.950Z,102318.03
2023-05-19T06:27:34.886Z,102322.94
2023-05-19T06:30:01.002Z,102322.31
2023-05-19T06:32:29.649Z,102324.06
2023-05-19T06:34:55.095Z,102325.84
2023-05-19T06:37:19.717Z,102328.78
2023-05-19T06:39:43.375Z,102318.97
2023-05-19T06:42:07.211Z,102319.56
2023-05-19T06:44:46.864Z,102317.72
2023-05-19T06:47:13.727Z,102322.44
2023-05-19T06:49:37.382Z,102325.63
2023-05-19T06:52:01.354Z,102316.16
2023-05-19T06:54:24.947Z,102318.81
2023-05-19T06:56:48.597Z,102324.19
2023-05-19T06:59:12.219Z,102322.19
2023-05-19T07:01:35.873Z,102316.88
2023-05-19T07:04:01.780Z,102314.84
2023-05-19T07:06:26.672Z,102314.50
2023-05-19T07:08:50.346Z,102318.97
2023-05-19T07:11:14.843Z,102317.41
2023-05-19T07:13:39.679Z,102317.50
2023-05-19T07:16:03.370Z,102319.88
2023-05-19T07:18:26.999Z,102323.38
2023-05-19T07:20:53.878Z,102322.94
2023-05-19T07:23:17.785Z,102314.50
2023-05-19T07:25:43.383Z,102325.56
2023-05-19T07:28:06.981Z,102331.53
2023-05-19T07:30:31.245Z,102327.25
2023-05-19T07:32:55.134Z,102319.13
2023-05-19T07:35:18.894Z,102311.78
2023-05-19T07:37:43.856Z,102315.56
2023-05-19T07:40:09.420Z,102313.41
2023-05-19T07:42:32.944Z,102303.50
2023-05-19T07:44:56.616Z,102313.66
2023-05-19T07:47:20.179Z,102312.38
2023-05-19T07:49:43.813Z,102319.59
2023-05-19T07:52:08.230Z,102305.16
2023-05-19T07:54:33.543Z,102302.03
2023-05-19T07:56:57.215Z,102308.00
2023-05-19T07:59:21.842Z,102295.41
2023-05-19T08:01:45.830Z,102298.06
2023-05-19T08:04:11.897Z,102307.84
2023-05-19T08:06:36.385Z,102294.84
2023-05-19T08:09:00.117Z,102298.34
2023-05-19T08:11:25.136Z,102300.00
2023-05-19T08:13:49.356Z,102298.84
2023-05-19T08:16:12.972Z,102301.94
2023-05-19T08:18:36.636Z,102293.56
2023-05-19T08:21:00.270Z,102299.31
2023-05-19T08:23:24.003Z,102297.03
2023-05-19T08:25:47.696Z,102299.72
2023-05-19T08:28:12.751Z,102304.81
2023-05-19T08:30:36.347Z,102296.94
2023-05-19T08:33:00.015Z,102295.53
2023-05-19T08:35:23.884Z,102300.06
2023-05-19T08:37:47.658Z,102303.91
2023-05-19T08:40:18.020Z,102296.59
2023-05-19T08:42:41.636Z,102288.66
2023-05-19T08:45:08.759Z,102289.81
2023-05-19T08:47:33.421Z,102285.53
2023-05-19T08:50:07.556Z,102284.97
2023-05-19T08:52:47.246Z,102281.91
2023-05-19T08:55:25.920Z,102279.75
2023-05-19T08:57:51.208Z,102275.78
2023-05-19T09:00:17.861Z,102280.38
2023-05-19T09:02:50.616Z,102271.50
2023-05-19T09:05:25.744Z,102259.44
2023-05-19T09:07:49.448Z,102270.59
2023-05-19T09:10:14.905Z,102278.38
2023-05-19T09:12:38.792Z,102267.56
2023-05-19T09:15:04.762Z,102270.53
2023-05-19T09:17:29.771Z,102271.28
2023-05-19T09:19:53.602Z,102273.56
2023-05-19T09:22:19.286Z,102275.97
2023-05-19T09:24:43.348Z,102264.13
2023-05-19T09:27:07.160Z,102258.97
2023-05-19T09:29:31.058Z,102257.16
2023-05-19T09:32:00.660Z,102251.22
2023-05-19T09:34:26.943Z,102255.97
2023-05-19T09:36:51.767Z,102259.84
2023-05-19T09:39:16.120Z,102250.25
2023-05-19T09:41:39.741Z,102245.53
2023-05-19T09:44:03.397Z,102241.38
2023-05-19T09:46:28.597Z,102249.53
2023-05-19T09:48:52.335Z,102241.91
2023-05-19T09:51:17.780Z,102249.25
2023-05-19T09:53:41.437Z,102247.69
2023-05-19T09:56:05.488Z,102251.69
2023-05-19T09:58:34.670Z,102241.78
2023-05-19T10:00:59.363Z,102233.97
2023-05-19T10:03:24.990Z,102236.16
2023-05-19T10:05:50.168Z,102237.84
2023-05-19T10:08:18.707Z,102231.34
2023-05-19T10:10:42.717Z,102224.16
2023-05-19T10:13:07.255Z,102228.13
2023-05-19T10:15:32.093Z,102220.78
2023-05-19T10:17:57.748Z,102209.19
2023-05-19T10:20:21.633Z,102209.50
2023-05-19T10:22:46.833Z,102214.59
2023-05-19T10:25:15.214Z,102219.78
2023-05-19T10:27:44.219Z,102227.69
2023-05-19T10:30:16.486Z,102223.47
2023-05-19T10:32:44.158Z,102217.44
2023-05-19T10:35:45.397Z,102215.31
2023-05-19T10:38:23.303Z,102217.84
2023-05-19T10:41:12.659Z,102212.66
2023-05-19T10:44:05.053Z,102212.72
2023-05-19T10:46:29.398Z,102199.63
2023-05-19T10:48:53.420Z,102202.53
2023-05-19T10:51:17.304Z,102197.38
2023-05-19T10:53:46.293Z,102198.34
2023-05-19T10:56:11.409Z,102201.31
2023-05-19T10:58:56.451Z,102206.97
2023-05-19T11:01:22.205Z,102192.34
2023-05-19T11:03:52.176Z,102200.94
2023-05-19T11:06:26.896Z,102198.63
2023-05-19T11:08:56.019Z,102187.78
2023-05-19T11:11:23.285Z,102182.94
2023-05-19T11:13:50.109Z,102172.72
2023-05-19T11:16:13.942Z,102184.72
2023-05-19T11:18:38.561Z,102188.38
2023-05-19T11:21:03.308Z,102179.41
2023-05-19T11:23:35.557Z,102179.34
2023-05-19T11:26:03.460Z,102182.41
2023-05-19T11:28:29.662Z,102181.59
2023-05-19T11:30:57.663Z,102187.59
2023-05-19T11:33:27.214Z,102179.50
2023-05-19T11:35:52.404Z,102174.34
2023-05-19T11:38:16.131Z,102178.31
2023-05-19T11:40:40.611Z,102171.66
2023-05-19T11:43:04.151Z,102173.53
2023-05-19T11:45:31.552Z,102166.84
2023-05-19T11:48:02.507Z,102178.38
2023-05-19T11:50:26.861Z,102157.31
2023-05-19T11:52:51.920Z,102162.91
2023-05-19T11:55:17.646Z,102158.59
2023-05-19T11:57:44.745Z,102171.53
2023-05-19T12:00:12.573Z,102169.00
2023-05-19T12:02:37.891Z,102167.63
2023-05-19T12:05:01.992Z,102169.59
2023-05-19T12:07:26.306Z,102157.38
2023-05-19T12:09:51.759Z,102160.47
2023-05-19T12:12:17.465Z,102165.91
2023-05-19T12:14:41.666Z,102170.44
2023-05-19T12:17:13.440Z,102184.03
2023-05-19T12:19:38.721Z,102178.88
2023-05-19T12:22:04.050Z,102168.09
2023-05-19T12:24:27.904Z,102165.75
2023-05-19T12:26:51.596Z,102164.19
2023-05-19T12:29:15.311Z,102164.00
2023-05-19T12:31:38.956Z,102156.34
2023-05-19T12:34:02.866Z,102162.13
2023-05-19T12:36:28.885Z,102159.25
2023-05-19T12:38:56.055Z,102151.59
2023-05-19T12:41:19.660Z,102153.56
2023-05-19T12:43:43.277Z,102159.59
2023-05-19T12:46:13.732Z,102148.56
2023-05-19T12:48:41.812Z,102148.44
2023-05-19T12:51:06.682Z,102140.34
2023-05-19T12:53:31.773Z,102146.13
2023-05-19T12:55:55.349Z,102149.75
2023-05-19T12:58:19.096Z,102136.09
2023-05-19T13:00:45.041Z,102136.97
2023-05-19T13:03:11.517Z,102134.66
2023-05-19T13:05:38.243Z,102130.19
2023-05-19T13:08:06.804Z,102138.34
2023-05-19T13:10:33.212Z,102140.06
2023-05-19T13:12:57.963Z,102130.56
2023-05-19T13:15:23.084Z,102139.25
2023-05-19T13:17:47.485Z,102135.88
2023-05-19T13:20:12.346Z,102134.97
2023-05-19T13:22:35.930Z,102137.06
2023-05-19T13:24:59.908Z,102136.34
2023-05-19T13:27:25.064Z,102124.41
2023-05-19T13:29:48.608Z,102132.13
2023-05-19T13:32:12.260Z,102131.69
2023-05-19T13:34:35.810Z,102136.09
2023-05-19T13:36:59.544Z,102126.09
2023-05-19T13:39:23.125Z,102125.72
2023-05-19T13:41:46.786Z,102132.78
2023-05-19T13:44:11.791Z,102131.81
2023-05-19T13:46:44.931Z,102141.34
2023-05-19T13:49:10.120Z,102142.28
2023-05-19T13:51:33.658Z,102135.19
2023-05-19T13:53:57.280Z,102120.53
2023-05-19T13:56:20.853Z,102126.22
2023-05-19T13:58:44.492Z,102133.63
2023-05-19T14:01:09.583Z,102124.00
2023-05-19T14:03:33.371Z,102125.81
2023-05-19T14:05:56.996Z,102119.00
2023-05-19T14:08:20.958Z,102122.03
2023-05-19T14:10:44.547Z,102119.66
2023-05-19T14:15:38.212Z,102121.66
2023-05-19T14:18:04.766Z,102131.47
2023-05-19T14:20:29.550Z,102126.72
2023-05-19T14:22:53.262Z,102133.00
2023-05-19T14:25:17.019Z,102137.75
2023-05-19T14:27:40.860Z,102135.38
2023-05-19T14:30:04.797Z,102137.72
2023-05-19T14:32:30.390Z,102140.59
2023-05-19T14:34:55.640Z,102136.44
2023-05-19T14:37:19.342Z,102134.59
2023-05-19T14:39:42.890Z,102147.84
2023-05-19T14:42:08.202Z,102147.81
2023-05-19T14:44:33.016Z,102143.00
2023-05-19T14:46:56.757Z,102146.66
2023-05-19T14:49:20.349Z,102130.75
2023-05-19T14:51:45.479Z,102144.78
2023-05-19T14:54:09.406Z,102137.44
2023-05-19T14:56:33.130Z,102144.09
2023-05-19T14:58:56.710Z,102133.25
2023-05-19T15:01:20.377Z,102133.91
2023-05-19T15:03:44.075Z,102145.41
2023-05-19T15:06:11.523Z,102127.38
2023-05-19T15:08:37.774Z,102142.38
2023-05-19T15:11:02.726Z,102144.78
2023-05-19T15:13:26.423Z,102143.94
2023-05-19T15:15:50.132Z,102147.94
2023-05-19T15:18:16.145Z,102144.47
2023-05-19T15:20:39.976Z,102148.75
2023-05-19T15:23:03.647Z,102140.84
2023-05-19T15:25:28.643Z,102141.41
2023-05-19T15:27:52.248Z,102135.44
2023-05-19T15:30:16.145Z,102141.53
2023-05-19T15:32:39.718Z,102134.44
2023-05-19T15:35:03.350Z,102126.16
2023-05-19T15:37:26.978Z,102129.97
2023-05-19T15:39:50.669Z,102119.00
2023-05-19T15:42:15.726Z,102128.84
2023-05-19T15:44:39.630Z,102117.34
2023-05-19T15:47:03.206Z,102125.84
2023-05-19T15:49:26.828Z,102119.75
2023-05-19T15:51:50.438Z,102120.44
2023-05-19T15:54:14.087Z,102121.88
2023-05-19T15:56:37.796Z,102120.56
2023-05-19T15:59:02.820Z,102126.41
2023-05-19T16:01:26.430Z,102129.13
2023-05-19T16:03:50.462Z,102129.84
2023-05-19T16:06:14.237Z,102129.13
2023-05-19T16:08:38.025Z,102126.78
2023-05-19T16:11:01.596Z,102130.41
2023-05-19T16:13:25.510Z,102129.81
2023-05-19T16:15:50.610Z,102118.78
2023-05-19T16:18:14.360Z,102128.13
2023-05-19T16:20:38.011Z,102119.25
2023-05-19T16:23:01.884Z,102123.69
2023-05-19T16:25:25.851Z,102119.28
2023-05-19T16:27:49.678Z,102123.72
2023-05-19T16:30:14.689Z,102117.41
2023-05-19T16:32:39.985Z,102111.72
2023-05-19T16:35:03.762Z,102110.75
2023-05-19T16:37:27.682Z,102114.38
2023-05-19T16:39:51.299Z,102110.38
2023-05-19T16:42:15.003Z,102110.69
2023-05-19T16:44:38.639Z,102116.56
2023-05-19T16:47:02.340Z,102116.28
2023-05-19T16:49:27.385Z,102117.81
2023-05-19T16:51:52.934Z,102118.88
2023-05-19T16:54:16.697Z,102125.75
2023-05-19T16:56:40.468Z,102130.47
2023-05-19T16:59:04.046Z,102128.75
2023-05-19T17:01:28.321Z,102131.09
2023-05-19T17:03:51.975Z,102121.63
2023-05-19T17:06:17.107Z,102124.44
2023-05-19T17:08:40.700Z,102124.72
2023-05-19T17:11:06.335Z,102123.59
2023-05-19T17:13:33.690Z,102123.28
2023-05-19T17:15:57.334Z,102126.47
2023-05-19T17:18:21.157Z,102132.03
2023-05-19T17:20:44.778Z,102123.31
2023-05-19T17:23:09.719Z,102128.94
2023-05-19T17:25:34.870Z,102132.03
2023-05-19T17:27:58.421Z,102130.47
2023-05-19T17:30:22.163Z,102129.09
2023-05-19T17:32:45.956Z,102129.94
2023-05-19T17:35:10.471Z,102126.22
2023-05-19T17:37:34.304Z,102126.16
2023-05-19T17:39:59.352Z,102129.53
2023-05-19T17:42:22.928Z,102133.59
2023-05-19T17:44:46.652Z,102135.53
2023-05-19T17:47:10.214Z,102136.75
2023-05-19T17:49:33.836Z,102141.97
2023-05-19T17:51:58.357Z,102134.19
2023-05-19T17:54:23.204Z,102139.72
2023-05-19T17:56:48.678Z,102142.94
2023-05-19T17:59:13.336Z,102135.09
2023-05-19T18:01:37.737Z,102136.97
2023-05-19T18:04:02.448Z,102137.00
2023-05-19T18:06:26.790Z,102135.78
2023-05-19T18:08:51.823Z,102132.94
2023-05-19T18:11:16.187Z,102128.75
2023-05-19T18:13:41.230Z,102124.75
2023-05-19T18:16:04.889Z,102127.97
2023-05-19T18:18:28.523Z,102132.31
2023-05-19T18:20:52.115Z,102132.22
2023-05-19T18:23:15.787Z,102126.25
2023-05-19T18:25:39.393Z,102136.03
2023-05-19T18:28:03.065Z,102127.13
2023-05-19T18:30:28.049Z,102142.97
2023-05-19T18:32:51.945Z,102143.47
2023-05-19T18:35:15.657Z,102147.03
2023-05-19T18:37:39.315Z,102158.25
2023-05-19T18:40:02.950Z,102156.41
2023-05-19T18:42:26.649Z,102157.66
2023-05-19T18:44:50.831Z,102155.13
2023-05-19T18:47:16.024Z,102157.94
2023-05-19T18:49:39.625Z,102167.50
2023-05-19T18:52:03.377Z,102168.00
2023-05-19T18:54:26.994Z,102162.38
2023-05-19T18:56:50.610Z,102162.31
2023-05-19T18:59:14.247Z,102159.72
2023-05-19T19:01:38.049Z,102161.19
2023-05-19T19:04:03.403Z,102167.66
2023-05-19T19:06:27.046Z,102163.81
2023-05-19T19:08:50.794Z,102169.72
2023-05-19T19:11:14.443Z,102155.19
2023-05-19T19:13:38.414Z,102159.72
2023-05-19T19:16:02.069Z,102164.38
2023-05-19T19:18:26.614Z,102159.69
2023-05-19T19:20:51.768Z,102160.59
2023-05-19T19:23:15.433Z,102169.81
2023-05-19T19:25:39.113Z,102179.72
2023-05-19T19:28:02.718Z,102171.91
2023-05-19T19:30:26.455Z,102173.53
2023-05-19T19:32:50.206Z,102174.91
2023-05-19T19:35:14.117Z,102174.06
2023-05-19T19:37:39.117Z,102173.59
2023-05-19T19:40:03.058Z,102167.66
2023-05-19T19:42:26.738Z,102175.09
2023-05-19T19:44:50.318Z,102176.69
2023-05-19T19:47:13.914Z,102174.72
2023-05-19T19:49:37.531Z,102168.31
2023-05-19T19:52:01.316Z,102180.53
2023-05-19T19:54:27.380Z,102165.97
2023-05-19T19:56:51.324Z,102169.41
2023-05-19T19:59:15.921Z,102172.13
2023-05-19T20:01:39.595Z,102173.84
2023-05-19T20:04:04.091Z,102174.34
2023-05-19T20:06:27.802Z,102180.00
2023-05-19T20:08:51.571Z,102176.66
2023-05-19T20:11:16.744Z,102182.31
2023-05-19T20:13:40.380Z,102182.94
2023-05-19T20:16:04.360Z,102186.47
2023-05-19T20:18:29.853Z,102188.06
2023-05-19T20:20:53.517Z,102187.81
2023-05-19T20:23:17.153Z,102192.13
2023-05-19T20:25:54.743Z,102191.25
2023-05-19T20:28:24.207Z,102199.13
2023-05-19T20:30:48.191Z,102193.94
2023-05-19T20:33:12.058Z,102198.72
2023-05-19T20:35:35.925Z,102200.03
2023-05-19T20:37:59.551Z,102198.06
2023-05-19T20:40:23.114Z,102199.13
2023-05-19T20:42:46.842Z,102195.41
2023-05-19T20:45:12.058Z,102203.41
2023-05-19T20:47:35.763Z,102212.84
2023-05-19T20:49:59.845Z,102213.44
2023-05-19T20:52:23.437Z,102208.50
2023-05-19T20:54:47.155Z,102212.56
2023-05-19T20:57:10.993Z,102213.25
2023-05-19T20:59:34.554Z,102212.59
2023-05-19T21:01:59.627Z,102210.88
2023-05-19T21:04:23.250Z,102210.22
2023-05-19T21:06:46.955Z,102209.47
2023-05-19T21:09:10.806Z,102213.50
2023-05-19T21:11:35.777Z,102211.25
2023-05-19T21:14:01.466Z,102215.25
2023-05-19T21:16:26.132Z,102212.66
2023-05-19T21:18:51.225Z,102216.78
2023-05-19T21:21:14.942Z,102214.53
2023-05-19T21:23:38.510Z,102225.03
2023-05-19T21:26:02.199Z,102222.16
2023-05-19T21:28:25.775Z,102224.84
2023-05-19T21:30:50.100Z,102217.06
2023-05-19T21:33:13.800Z,102220.63
2023-05-19T21:35:39.042Z,102227.22
2023-05-19T21:38:11.903Z,102227.44
2023-05-19T21:40:36.066Z,102228.97
2023-05-19T21:42:59.659Z,102230.25
2023-05-19T21:45:23.315Z,102229.59
2023-05-19T21:47:46.926Z,102232.63
2023-05-19T21:50:15.650Z,102230.25
2023-05-19T21:52:40.641Z,102230.69
2023-05-19T21:55:04.372Z,102232.72
2023-05-19T21:57:27.927Z,102241.25
2023-05-19T21:59:51.576Z,102233.47
2023-05-19T22:02:15.655Z,102227.44
2023-05-19T22:04:39.754Z,102235.59
2023-05-19T22:07:03.380Z,102236.25
2023-05-19T22:09:29.253Z,102239.53
2023-05-19T22:11:53.315Z,102239.78
2023-05-19T22:14:17.050Z,102242.66
2023-05-19T22:16:40.693Z,102246.75
2023-05-19T22:19:04.402Z,102246.59
2023-05-19T22:21:28.089Z,102239.50
2023-05-19T22:23:53.926Z,102241.59
2023-05-19T22:26:18.886Z,102248.97
2023-05-19T22:28:42.632Z,102249.91
2023-05-19T22:31:06.685Z,102252.25
2023-05-19T22:33:30.327Z,102256.03
2023-05-19T22:35:54.186Z,102253.81
2023-05-19T22:38:17.848Z,102246.91
2023-05-19T22:40:41.417Z,102244.69
2023-05-19T22:43:06.559Z,102245.94
2023-05-19T22:45:30.158Z,102250.59
2023-05-19T22:47:55.222Z,102248.97
2023-05-19T22:50:19.166Z,102254.25
2023-05-19T22:52:42.802Z,102252.34
2023-05-19T22:55:07.663Z,102256.19
2023-05-19T22:57:32.067Z,102249.06
2023-05-19T22:59:57.044Z,102249.44
2023-05-19T23:02:20.861Z,102246.38
2023-05-19T23:04:44.469Z,102246.78
2023-05-19T23:07:08.124Z,102245.94
2023-05-19T23:09:31.683Z,102245.81
2023-05-19T23:11:55.632Z,102245.44
2023-05-19T23:14:19.194Z,102251.41
2023-05-19T23:16:44.212Z,102247.25
2023-05-19T23:19:09.126Z,102240.84
2023-05-19T23:21:32.898Z,102240.72
2023-05-19T23:23:56.879Z,102240.84
2023-05-19T23:26:21.442Z,102240.84
2023-05-19T23:28:45.318Z,102250.44
2023-05-19T23:31:08.968Z,102240.56
2023-05-19T23:33:34.032Z,102246.91
2023-05-19T23:35:57.662Z,102248.91
2023-05-19T23:38:21.242Z,102248.81
2023-05-19T23:40:44.995Z,102242.75
2023-05-19T23:43:08.699Z,102236.19
2023-05-19T23:45:32.641Z,102246.78
2023-05-19T23:47:56.539Z,102246.97
2023-05-19T23:50:21.758Z,102246.97
2023-05-19T23:52:46.056Z,102246.56
2023-05-19T23:55:12.731Z,102254.88
2023-05-19T23:57:36.349Z,102252.19
